Aeroporto :
LOGIN :

Iscrizione | Disclaimer

   EN    FR    IT 

 










Sommario :    VFR   VFR Marginale   IFR   IFR Intensivo   IFR Molto Intensivo
Visibilità : 
Base nubi : 
>= 8 km
>= 3000ft
5 / 8 km
1000 / 3000 ft
1500m / 5 km
500 / 1000 ft
800 / 1500m
200 / 500 ft
< 800m
< 200 ft
Simboli :   Temporali  Nebbia  Neve Forte  Precipitazioni Forti  Vento > 20 kt
SIGMETs :   Varie  Temporali  Ghiacco  Turbolenza  Onda orograficha  Ceneri Vulcaniche






- Altitudine del aeroporto : 82 ft
- Codice IATA : AAR


EKAH - Aarhus Tirstrup

ULTIMO METAR :
  • 171150Z AUTO 20006KT 150V250 9000NDV BKN009/// 07/06 Q1015

METARs OBSOLETI :
  • 171120Z AUTO 20004KT 140V270 9000NDV BKN009/// 08/06 Q1015
  • 171050Z AUTO 20004KT 140V290 9999NDV SCT008/// 08/06 Q1015
  • 171020Z AUTO VRB04KT 9000NDV BKN008/// 07/06 Q1014
  • 170950Z AUTO 20004KT 130V260 8000NDV BKN008/// 07/06 Q1014
  • 170920Z AUTO 20006KT 160V250 9000NDV BKN009/// 07/06 Q1014

TAF TAF EKAH
Valido dal 17 a 12 ore il 18 a 12 ore UTC


171139Z 1712/1812 20008KT 9999 SCT012
TEMPO 1712/1722 BKN008
TEMPO 1722/1806 1200 -RADZ BR BKN002
BECMG 1806/1808 2000 BR BKN003
BECMG 1808/1810 5000 BKN010



MetMap, La meteo Aeronautica in un colpo d'occhio ! - Copyright ORBIFLY Dicembre 2007 - Disclaimer

ORBIFLY MET'MAP TEAM :

Programmazione e sviluppo : Alexandra Zaïnal
Concezione e sviluppo : Baudouin d'Aumeries
Co-Programmazione e sviluppo : Marc-Olivier Méhu
Supporto tecnico e logistico : Manuel Goepfert
Aiuto per la traduzione : Arnaldo La Scala

Contatto : metmap@orbifly.com




FONTI E CREDITI :

   NOAA